Time;durP1;ratioP1;P1;durP2;ratioP2;P2;SDS_P1;SDS_P2;PMS_P1;PMS_P2;Temp;Humidity;BMP_temperature;BMP_pressure;BME280_temperature;BME280_humidity;BME280_pressure;Samples;Min_cycle;Max_cycle;Signal;HPM_P1;HPM_P2
2021/03/09 00:01:26;;;;;;;10.95;6.93;;;16.80;55.30;;;;;;4894904;29;20431;-62
2021/03/09 00:03:52;;;;;;;14.52;7.90;;;16.80;55.20;;;;;;4885827;29;20104;-59
2021/03/09 00:06:17;;;;;;;13.45;7.68;;;16.70;55.10;;;;;;4893044;29;20115;-61
2021/03/09 00:08:43;;;;;;;13.20;7.53;;;16.80;55.20;;;;;;4896571;29;20028;-61
2021/03/09 00:11:08;;;;;;;13.93;8.10;;;16.70;55.10;;;;;;4880652;29;20041;-61
2021/03/09 00:13:34;;;;;;;11.88;7.50;;;16.70;55.10;;;;;;4885507;29;20040;-62
2021/03/09 00:15:59;;;;;;;12.32;7.85;;;16.70;55.10;;;;;;4880471;29;20035;-61
2021/03/09 00:18:25;;;;;;;11.82;7.78;;;16.70;55.10;;;;;;4878832;29;20055;-60
2021/03/09 00:20:50;;;;;;;11.75;7.45;;;16.70;55.10;;;;;;4889860;29;20515;-59
2021/03/09 00:23:16;;;;;;;13.13;8.18;;;16.70;55.10;;;;;;4881322;29;20085;-61
2021/03/09 00:25:41;;;;;;;11.77;7.50;;;16.60;55.00;;;;;;4882170;29;20037;-61
2021/03/09 00:28:07;;;;;;;13.98;8.25;;;16.70;55.00;;;;;;4878627;29;20411;-62
2021/03/09 00:30:32;;;;;;;13.40;8.40;;;16.70;55.00;;;;;;4878671;29;20481;-62
2021/03/09 00:32:58;;;;;;;13.40;8.60;;;16.60;54.90;;;;;;4878614;29;20048;-60
2021/03/09 00:35:23;;;;;;;14.05;9.02;;;16.60;54.90;;;;;;4883779;29;20044;-61
2021/03/09 00:37:49;;;;;;;12.13;8.35;;;16.60;54.80;;;;;;4881356;29;20089;-61
2021/03/09 00:40:14;;;;;;;13.10;8.52;;;16.60;54.70;;;;;;4887509;29;20040;-61
2021/03/09 00:42:41;;;;;;;13.88;8.98;;;16.60;54.70;;;;;;4878814;29;20033;-61
2021/03/09 00:45:07;;;;;;;14.90;9.32;;;16.60;54.60;;;;;;4881550;29;20025;-61
2021/03/09 00:47:32;;;;;;;13.43;8.98;;;16.60;54.50;;;;;;4877296;29;20044;-61
2021/03/09 00:49:59;;;;;;;13.60;8.88;;;16.60;55.00;;;;;;4877618;29;20033;-61
2021/03/09 00:52:24;;;;;;;14.40;8.70;;;16.60;54.40;;;;;;4881298;29;20044;-61
2021/03/09 00:54:50;;;;;;;14.02;9.23;;;16.50;54.40;;;;;;4880945;29;20401;-61
2021/03/09 00:57:16;;;;;;;13.75;9.25;;;16.50;54.40;;;;;;4883659;29;20452;-60
2021/03/09 00:59:41;;;;;;;16.52;9.13;;;16.50;54.20;;;;;;4890747;29;20558;-61
2021/03/09 01:02:07;;;;;;;14.05;9.10;;;16.50;54.70;;;;;;4881862;29;20037;-61
2021/03/09 01:04:32;;;;;;;13.95;8.75;;;16.50;54.20;;;;;;4876995;29;20565;-62
2021/03/09 01:06:58;;;;;;;14.07;8.65;;;16.50;54.10;;;;;;4896683;29;20527;-60
2021/03/09 01:09:23;;;;;;;13.98;9.45;;;16.50;54.10;;;;;;4896549;29;20082;-60
2021/03/09 01:11:49;;;;;;;14.90;9.45;;;16.50;54.10;;;;;;4890642;29;20032;-61
2021/03/09 01:14:14;;;;;;;14.55;9.65;;;16.40;54.00;;;;;;4883129;29;20408;-60
2021/03/09 01:16:40;;;;;;;14.43;9.23;;;16.50;54.10;;;;;;4899961;29;20381;-61
2021/03/09 01:19:05;;;;;;;16.23;9.48;;;16.50;54.00;;;;;;4899104;29;20036;-61
2021/03/09 01:21:31;;;;;;;19.25;9.68;;;16.40;53.90;;;;;;4897982;29;20060;-61
2021/03/09 01:23:56;;;;;;;15.98;9.35;;;16.40;53.90;;;;;;4885370;29;20116;-60
2021/03/09 01:26:22;;;;;;;14.13;9.25;;;16.40;53.90;;;;;;4887861;29;20044;-61
2021/03/09 01:28:47;;;;;;;13.85;9.15;;;16.40;53.80;;;;;;4918032;29;20040;-62
2021/03/09 01:31:13;;;;;;;15.00;9.48;;;16.40;53.80;;;;;;4910943;29;20123;-60
2021/03/09 01:33:38;;;;;;;15.48;9.32;;;16.40;53.80;;;;;;4898982;29;20079;-61
2021/03/09 01:36:04;;;;;;;13.40;9.45;;;16.40;53.80;;;;;;4898849;29;20029;-61
2021/03/09 01:38:30;;;;;;;15.13;9.60;;;16.40;53.80;;;;;;4899073;29;20025;-60
2021/03/09 01:40:55;;;;;;;13.23;9.27;;;16.40;53.80;;;;;;4898773;29;20051;-60
2021/03/09 01:43:21;;;;;;;14.48;9.35;;;16.30;53.70;;;;;;4891625;29;20576;-60
2021/03/09 01:45:46;;;;;;;15.23;9.23;;;16.30;53.70;;;;;;4883659;29;20140;-61
2021/03/09 01:48:14;;;;;;;17.17;9.50;;;16.30;53.70;;;;;;4880406;29;20077;-61
2021/03/09 01:50:42;;;;;;;14.80;9.18;;;16.30;53.70;;;;;;4883225;29;20029;-61
2021/03/09 01:53:08;;;;;;;15.10;9.20;;;16.30;53.70;;;;;;4897471;29;20132;-61
2021/03/09 01:55:35;;;;;;;15.32;9.90;;;16.30;53.60;;;;;;4886442;29;20579;-61
2021/03/09 01:58:06;;;;;;;14.68;9.60;;;16.30;53.60;;;;;;4880982;29;20025;-61
2021/03/09 02:00:32;;;;;;;14.27;9.02;;;16.30;53.60;;;;;;4884660;29;20021;-60
2021/03/09 02:02:59;;;;;;;15.38;9.55;;;16.30;53.60;;;;;;4898683;29;20385;-60
2021/03/09 02:05:24;;;;;;;13.85;9.15;;;16.30;53.60;;;;;;4879814;29;20033;-61
2021/03/09 02:07:50;;;;;;;13.48;8.90;;;16.30;53.60;;;;;;4882782;29;20539;-61
2021/03/09 02:10:16;;;;;;;13.98;9.32;;;16.20;53.50;;;;;;4895984;29;20040;-61
2021/03/09 02:12:53;;;;;;;14.23;9.38;;;16.20;53.50;;;;;;4884116;29;20108;-62
2021/03/09 02:15:37;;;;;;;17.92;10.55;;;16.20;53.50;;;;;;4879436;29;20029;-60
2021/03/09 02:18:28;;;;;;;15.90;10.23;;;16.20;53.50;;;;;;4896747;29;20120;-60
2021/03/09 02:21:23;;;;;;;17.17;9.43;;;16.20;53.50;;;;;;4893216;29;20017;-61
2021/03/09 02:23:57;;;;;;;13.98;8.98;;;16.20;53.50;;;;;;4879562;29;20040;-59
2021/03/09 02:26:50;;;;;;;13.60;9.13;;;16.20;53.50;;;;;;4886744;29;20036;-61
2021/03/09 02:29:28;;;;;;;13.70;8.98;;;16.20;53.50;;;;;;4883862;29;20045;-60
2021/03/09 02:31:56;;;;;;;13.88;9.13;;;16.20;53.50;;;;;;4885920;29;20453;-61
2021/03/09 02:34:44;;;;;;;13.30;8.80;;;16.20;53.50;;;;;;4892724;29;20028;-60
2021/03/09 02:37:13;;;;;;;14.75;9.27;;;16.20;53.60;;;;;;4893897;29;20503;-61
2021/03/09 02:39:43;;;;;;;14.82;9.02;;;16.10;53.50;;;;;;4895691;29;20028;-60
2021/03/09 02:42:11;;;;;;;15.00;9.45;;;16.10;53.50;;;;;;4882715;29;20092;-62
2021/03/09 02:44:39;;;;;;;15.10;9.90;;;16.10;53.50;;;;;;4892161;29;20511;-60
2021/03/09 02:47:06;;;;;;;14.75;8.90;;;16.10;53.60;;;;;;4886310;29;20029;-60
2021/03/09 02:49:34;;;;;;;14.27;9.30;;;16.10;53.60;;;;;;4883941;29;20141;-61
2021/03/09 02:52:01;;;;;;;14.65;9.38;;;16.10;53.60;;;;;;4889651;29;20031;-61
2021/03/09 02:54:28;;;;;;;14.02;9.27;;;16.10;53.60;;;;;;4890294;29;20081;-61
2021/03/09 02:56:54;;;;;;;15.15;9.45;;;16.00;53.50;;;;;;4891317;29;20028;-62
2021/03/09 02:59:21;;;;;;;15.13;9.38;;;16.00;53.60;;;;;;4894989;29;20069;-61
2021/03/09 03:01:48;;;;;;;14.77;9.52;;;16.00;53.60;;;;;;4890844;29;20044;-61
2021/03/09 03:04:16;;;;;;;16.80;9.45;;;16.00;53.60;;;;;;4887674;29;20041;-60
2021/03/09 03:06:44;;;;;;;14.93;8.82;;;16.10;53.60;;;;;;4879805;29;20032;-60
2021/03/09 03:09:11;;;;;;;14.07;9.35;;;16.00;53.60;;;;;;4878774;29;20466;-60
2021/03/09 03:11:39;;;;;;;15.40;10.20;;;16.00;53.60;;;;;;4883266;29;20493;-61
2021/03/09 03:14:06;;;;;;;13.75;9.52;;;16.00;53.60;;;;;;4881679;29;20102;-61
2021/03/09 03:16:34;;;;;;;13.90;10.05;;;16.00;53.60;;;;;;4894504;29;20039;-60
2021/03/09 03:19:01;;;;;;;13.60;8.88;;;16.00;53.70;;;;;;4897317;29;20472;-60
2021/03/09 03:21:29;;;;;;;15.55;9.40;;;16.00;53.70;;;;;;4883439;29;20033;-60
2021/03/09 03:23:59;;;;;;;14.85;9.35;;;15.90;53.60;;;;;;4878671;29;20032;-60
2021/03/09 03:26:26;;;;;;;15.00;9.90;;;15.90;53.70;;;;;;4886720;29;20036;-61
2021/03/09 03:28:53;;;;;;;14.77;10.13;;;16.00;53.70;;;;;;4878309;29;20113;-63
2021/03/09 03:31:19;;;;;;;14.80;9.77;;;15.90;53.70;;;;;;4877679;29;20035;-61
2021/03/09 03:33:45;;;;;;;14.07;9.25;;;15.90;53.80;;;;;;4879408;29;20437;-59
2021/03/09 03:36:10;;;;;;;17.60;11.23;;;15.90;53.80;;;;;;4888569;29;20033;-62
2021/03/09 03:38:39;;;;;;;14.65;9.50;;;15.90;53.80;;;;;;4884199;29;20040;-62
2021/03/09 03:41:06;;;;;;;14.73;9.82;;;15.90;53.80;;;;;;4881799;29;20052;-61
2021/03/09 03:43:32;;;;;;;15.30;10.07;;;15.90;53.80;;;;;;4887938;29;20104;-61
2021/03/09 03:45:58;;;;;;;16.42;10.18;;;15.90;53.80;;;;;;4886425;29;20032;-61
2021/03/09 03:48:25;;;;;;;15.00;9.32;;;15.80;53.80;;;;;;4895218;29;20111;-60
2021/03/09 03:50:54;;;;;;;15.20;10.30;;;15.80;53.80;;;;;;4889522;29;20516;-60
2021/03/09 03:53:28;;;;;;;15.93;9.88;;;15.80;53.90;;;;;;4893944;29;20392;-60
2021/03/09 03:56:23;;;;;;;15.23;9.93;;;15.80;53.90;;;;;;4887814;29;20059;-60
2021/03/09 03:59:05;;;;;;;16.52;10.85;;;15.80;53.90;;;;;;4896664;29;20024;-60
2021/03/09 04:01:32;;;;;;;16.17;10.05;;;15.80;53.90;;;;;;4885366;29;20033;-61
2021/03/09 04:04:03;;;;;;;13.98;9.48;;;15.80;54.00;;;;;;4894695;29;20029;-61
2021/03/09 04:06:29;;;;;;;17.30;10.77;;;15.80;54.00;;;;;;4888300;29;20032;-60
2021/03/09 04:09:01;;;;;;;16.58;10.70;;;15.80;54.00;;;;;;4890532;29;20029;-60
2021/03/09 04:11:27;;;;;;;;;;;15.70;54.00;;;;;;4884503;29;20040;-58
2021/03/09 04:13:53;;;;;;;17.98;11.32;;;15.80;54.00;;;;;;4878629;29;19924;-60
2021/03/09 04:16:20;;;;;;;17.65;11.88;;;15.70;54.00;;;;;;4893868;29;20090;-61
2021/03/09 04:18:47;;;;;;;16.67;10.40;;;15.70;54.00;;;;;;4896554;29;20021;-60
2021/03/09 04:21:13;;;;;;;17.30;11.18;;;15.70;54.00;;;;;;4880491;29;20109;-60
2021/03/09 04:23:39;;;;;;;16.60;10.93;;;15.70;54.00;;;;;;4876501;29;20497;-61
2021/03/09 04:26:06;;;;;;;15.32;10.27;;;15.70;54.00;;;;;;4884596;29;20513;-60
2021/03/09 04:28:32;;;;;;;16.30;10.85;;;15.70;54.10;;;;;;4903325;29;20415;-59
2021/03/09 04:30:59;;;;;;;16.00;10.65;;;15.70;54.00;;;;;;4903921;29;20052;-61
2021/03/09 04:33:29;;;;;;;16.55;10.68;;;15.70;54.00;;;;;;4890800;29;20040;-62
2021/03/09 04:35:56;;;;;;;17.02;11.20;;;15.70;54.10;;;;;;4895500;29;20077;-59
2021/03/09 04:38:22;;;;;;;16.15;10.55;;;15.60;54.10;;;;;;4895231;29;20025;-60
2021/03/09 04:40:49;;;;;;;18.42;11.90;;;15.70;54.10;;;;;;4887068;29;20409;-60
2021/03/09 04:43:15;;;;;;;18.48;11.73;;;15.60;54.10;;;;;;4889288;29;20032;-61
2021/03/09 04:45:40;;;;;;;17.42;11.68;;;15.70;54.10;;;;;;4886599;29;20043;-61
2021/03/09 04:48:07;;;;;;;19.60;11.65;;;15.60;54.60;;;;;;4893181;29;20489;-59
2021/03/09 04:50:35;;;;;;;19.52;12.30;;;15.60;54.00;;;;;;4894537;29;20033;-60
2021/03/09 04:53:01;;;;;;;16.92;11.10;;;15.60;54.00;;;;;;4890097;29;20028;-60
2021/03/09 04:55:27;;;;;;;20.73;12.95;;;15.60;54.00;;;;;;4889130;29;20033;-61
2021/03/09 04:57:53;;;;;;;19.77;12.52;;;15.60;54.00;;;;;;4892523;29;20028;-60
2021/03/09 05:00:21;;;;;;;16.95;11.50;;;15.60;54.00;;;;;;4896039;29;20119;-60
2021/03/09 05:02:48;;;;;;;19.85;13.27;;;15.60;53.90;;;;;;4888940;29;20501;-62
2021/03/09 05:05:15;;;;;;;18.02;12.07;;;15.60;53.90;;;;;;4894483;29;20052;-60
2021/03/09 05:07:41;;;;;;;20.10;13.02;;;15.60;54.00;;;;;;4892573;29;20044;-61
2021/03/09 05:10:07;;;;;;;20.35;11.90;;;15.60;53.90;;;;;;4898075;29;20091;-60
2021/03/09 05:12:34;;;;;;;20.80;12.32;;;15.60;53.90;;;;;;4885800;29;20556;-62
2021/03/09 05:15:02;;;;;;;22.13;12.40;;;15.50;53.90;;;;;;4881088;29;20473;-60
2021/03/09 05:17:27;;;;;;;20.48;12.35;;;15.50;53.90;;;;;;4877316;29;20041;-62
2021/03/09 05:19:53;;;;;;;23.30;14.05;;;15.50;53.90;;;;;;4888236;29;20027;-60
2021/03/09 05:22:18;;;;;;;18.02;11.95;;;15.60;54.10;;;;;;4892494;29;20100;-59
2021/03/09 05:24:44;;;;;;;30.13;9.52;;;15.50;54.10;;;;;;4885586;29;20051;-61
2021/03/09 05:27:09;;;;;;;79.60;13.88;;;16.30;55.40;;;;;;4878440;29;20045;-61
2021/03/09 05:29:35;;;;;;;22.23;13.40;;;16.40;53.60;;;;;;4888844;29;20041;-60
2021/03/09 05:32:01;;;;;;;21.20;13.45;;;16.20;52.90;;;;;;4880520;29;20039;-60
2021/03/09 05:34:27;;;;;;;213.77;21.20;;;16.00;53.30;;;;;;4882297;29;20041;-59
2021/03/09 05:36:53;;;;;;;20.77;12.07;;;16.90;53.20;;;;;;4889788;29;20045;-63
2021/03/09 05:39:18;;;;;;;19.52;12.27;;;16.40;52.60;;;;;;4889939;29;20032;-62
2021/03/09 05:41:44;;;;;;;20.27;11.80;;;16.10;53.30;;;;;;4883230;29;20029;-61
2021/03/09 05:44:09;;;;;;;21.98;12.93;;;15.90;53.80;;;;;;4892657;29;20039;-61
2021/03/09 05:46:35;;;;;;;19.75;11.55;;;15.70;54.00;;;;;;4883319;29;20170;-61
2021/03/09 05:49:01;;;;;;;19.52;12.20;;;15.60;54.10;;;;;;4872885;29;20097;-61
2021/03/09 05:51:30;;;;;;;30.42;13.35;;;15.60;54.20;;;;;;4891294;29;20028;-59
2021/03/09 05:53:55;;;;;;;32.28;14.45;;;15.60;54.40;;;;;;4891253;29;20029;-60
2021/03/09 05:56:22;;;;;;;28.88;16.60;;;15.60;54.50;;;;;;4898003;29;20095;-62
2021/03/09 05:58:48;;;;;;;26.30;14.63;;;15.50;54.50;;;;;;4911848;29;20043;-60
2021/03/09 06:01:13;;;;;;;29.63;15.00;;;15.50;54.40;;;;;;4895624;29;20029;-59
2021/03/09 06:03:39;;;;;;;24.42;13.18;;;15.60;54.50;;;;;;4891706;29;20037;-61
2021/03/09 06:06:04;;;;;;;23.35;13.38;;;15.60;54.40;;;;;;4892152;29;20104;-60
2021/03/09 06:08:30;;;;;;;24.67;14.00;;;15.70;54.40;;;;;;4891028;29;20515;-59
2021/03/09 06:11:15;;;;;;;25.65;14.18;;;15.70;54.30;;;;;;4891717;29;20028;-63
2021/03/09 06:13:41;;;;;;;21.58;13.43;;;15.80;54.10;;;;;;4891721;29;20669;-60
2021/03/09 06:16:07;;;;;;;24.98;14.23;;;15.80;53.90;;;;;;4892324;29;20040;-62
2021/03/09 06:18:33;;;;;;;23.67;13.65;;;15.80;53.80;;;;;;4891093;29;20024;-60
2021/03/09 06:21:08;;;;;;;23.85;14.80;;;15.90;53.80;;;;;;4892737;29;20035;-60
2021/03/09 06:23:35;;;;;;;23.48;13.07;;;15.90;53.80;;;;;;4890927;29;20504;-59
2021/03/09 06:26:00;;;;;;;52.00;46.40;;;15.90;53.80;;;;;;4890447;29;20112;-60
2021/03/09 06:28:32;;;;;;;61.97;55.22;;;15.90;53.80;;;;;;4891664;29;20041;-59
2021/03/09 06:31:01;;;;;;;46.47;32.75;;;15.90;53.90;;;;;;4885350;29;20389;-61
2021/03/09 06:33:28;;;;;;;32.30;24.70;;;16.00;54.00;;;;;;4892010;29;20288;-59
2021/03/09 06:35:55;;;;;;;287.00;206.82;;;16.10;54.00;;;;;;4897113;29;20098;-59
2021/03/09 06:38:25;;;;;;;120.00;81.95;;;16.20;54.10;;;;;;4896386;29;20064;-61
2021/03/09 06:41:14;;;;;;;99.07;70.05;;;16.20;54.10;;;;;;4892445;29;20021;-60
2021/03/09 06:43:45;;;;;;;78.80;55.33;;;16.30;54.00;;;;;;4896335;29;20033;-60
2021/03/09 06:46:20;;;;;;;71.80;54.15;;;16.90;61.00;;;;;;4896631;29;20399;-61
2021/03/09 06:48:51;;;;;;;66.53;49.63;;;17.80;59.00;;;;;;4896555;29;20088;-60
2021/03/09 06:51:34;;;;;;;60.00;45.50;;;18.40;57.30;;;;;;4896610;29;20048;-60
2021/03/09 06:54:05;;;;;;;64.25;44.22;;;17.70;56.90;;;;;;4897286;29;20097;-61
2021/03/09 06:56:32;;;;;;;53.90;41.20;;;17.20;57.60;;;;;;4897599;29;20477;-60
2021/03/09 06:59:26;;;;;;;51.65;37.10;;;17.00;58.50;;;;;;4897712;29;20048;-60
2021/03/09 07:02:18;;;;;;;48.85;36.40;;;16.90;58.40;;;;;;4896419;29;20025;-61
2021/03/09 07:04:46;;;;;;;43.00;33.00;;;16.90;58.50;;;;;;4897131;29;20488;-60
2021/03/09 07:07:14;;;;;;;44.63;34.10;;;16.90;58.60;;;;;;4897478;29;20120;-61
2021/03/09 07:09:51;;;;;;;42.10;31.08;;;16.90;58.00;;;;;;4897432;29;20035;-60
2021/03/09 07:12:18;;;;;;;50.63;32.65;;;17.00;58.20;;;;;;4894998;29;20035;-60
2021/03/09 07:14:45;;;;;;;42.45;29.65;;;17.00;57.70;;;;;;4896238;29;20044;-61
2021/03/09 07:17:12;;;;;;;39.55;29.40;;;17.00;57.30;;;;;;4897391;29;20084;-60
2021/03/09 07:19:43;;;;;;;36.03;27.10;;;17.00;57.30;;;;;;4896028;29;20029;-61
2021/03/09 07:22:13;;;;;;;43.70;29.15;;;17.00;57.00;;;;;;4897246;29;20021;-60
2021/03/09 07:24:44;;;;;;;37.58;27.25;;;17.00;56.70;;;;;;4896881;29;20039;-61
2021/03/09 07:27:15;;;;;;;35.40;26.15;;;17.00;56.50;;;;;;4897117;29;20064;-60
2021/03/09 07:29:48;;;;;;;37.55;25.63;;;17.10;56.30;;;;;;4897208;29;20036;-60
2021/03/09 07:32:16;;;;;;;33.97;24.05;;;17.10;56.10;;;;;;4895842;29;20035;-59
2021/03/09 07:34:43;;;;;;;31.02;24.20;;;17.10;55.80;;;;;;4896669;29;20091;-60
2021/03/09 07:37:09;;;;;;;31.35;23.13;;;17.10;55.50;;;;;;4895683;29;20489;-60
2021/03/09 07:39:37;;;;;;;29.73;21.63;;;17.20;55.50;;;;;;4895727;29;20036;-60
2021/03/09 07:42:04;;;;;;;27.70;21.17;;;17.10;55.20;;;;;;4897021;29;20021;-61
2021/03/09 07:44:30;;;;;;;31.13;20.98;;;17.20;55.00;;;;;;4896574;29;20492;-61
2021/03/09 07:46:58;;;;;;;27.17;20.88;;;17.20;54.90;;;;;;4896942;29;20039;-61
2021/03/09 07:49:24;;;;;;;29.42;20.50;;;17.20;54.80;;;;;;4896837;29;20036;-60
2021/03/09 07:52:14;;;;;;;28.67;20.58;;;17.20;54.60;;;;;;4896743;29;20056;-61
2021/03/09 07:55:00;;;;;;;25.98;19.13;;;17.20;54.50;;;;;;4893710;29;20049;-61
2021/03/09 07:57:26;;;;;;;26.48;19.05;;;17.10;54.30;;;;;;4896494;29;20032;-61
2021/03/09 08:00:05;;;;;;;30.33;19.63;;;17.10;54.20;;;;;;4896668;29;20560;-62
2021/03/09 08:02:45;;;;;;;32.50;18.75;;;17.10;54.20;;;;;;4896653;29;20416;-60
2021/03/09 08:05:16;;;;;;;29.00;17.20;;;17.20;54.20;;;;;;4896305;29;20484;-64
2021/03/09 08:08:08;;;;;;;27.80;16.92;;;17.20;54.10;;;;;;4896638;29;20033;-65
2021/03/09 08:10:33;;;;;;;30.70;16.95;;;17.30;54.10;;;;;;4895406;29;20107;-68
2021/03/09 08:13:08;;;;;;;26.92;16.40;;;17.40;54.00;;;;;;4896476;29;20547;-65
2021/03/09 08:15:35;;;;;;;24.52;17.00;;;17.50;53.70;;;;;;4895967;29;20029;-66
2021/03/09 08:18:21;;;;;;;24.65;16.55;;;17.50;53.80;;;;;;4896345;29;20024;-68
2021/03/09 08:20:58;;;;;;;25.00;15.73;;;17.60;53.60;;;;;;4896501;29;20032;-67
2021/03/09 08:23:33;;;;;;;23.65;16.45;;;17.60;53.50;;;;;;4895200;29;20434;-67
2021/03/09 08:26:03;;;;;;;19.58;13.82;;;17.70;53.40;;;;;;4896097;29;20029;-61
2021/03/09 08:28:39;;;;;;;25.45;15.52;;;17.70;53.20;;;;;;4896388;29;20047;-61
2021/03/09 08:31:11;;;;;;;20.25;14.05;;;17.80;53.10;;;;;;4896465;29;20404;-61
2021/03/09 08:33:44;;;;;;;32.70;22.80;;;17.80;53.00;;;;;;4896379;29;20032;-60
2021/03/09 08:36:19;;;;;;;30.80;23.38;;;17.70;53.00;;;;;;4897577;29;20045;-61
2021/03/09 08:39:00;;;;;;;28.95;20.02;;;17.70;52.90;;;;;;4896292;29;20028;-60
2021/03/09 08:41:27;;;;;;;26.45;18.15;;;17.70;52.90;;;;;;4896260;29;20035;-60
2021/03/09 08:44:16;;;;;;;24.98;17.15;;;17.80;52.90;;;;;;4896125;29;20029;-61
2021/03/09 08:46:54;;;;;;;21.63;16.92;;;17.70;52.80;;;;;;4882623;29;20045;-61
2021/03/09 08:49:37;;;;;;;19.20;15.30;;;17.80;52.70;;;;;;4876884;29;20025;-60
2021/03/09 08:52:18;;;;;;;21.38;14.45;;;17.80;52.70;;;;;;4876643;29;20056;-61
2021/03/09 08:54:48;;;;;;;22.65;15.50;;;17.80;52.70;;;;;;4876879;29;20108;-60
2021/03/09 08:57:19;;;;;;;21.33;15.27;;;17.70;52.70;;;;;;4877624;29;20052;-60
2021/03/09 08:59:47;;;;;;;19.90;13.88;;;17.70;52.60;;;;;;4877584;29;20029;-60
2021/03/09 09:02:17;;;;;;;17.77;13.82;;;17.70;52.60;;;;;;4877339;29;20030;-62
2021/03/09 09:05:06;;;;;;;19.10;13.75;;;17.70;52.60;;;;;;4877295;29;20028;-61
2021/03/09 09:07:36;;;;;;;209.35;171.00;;;17.60;52.60;;;;;;4899821;29;20433;-61
2021/03/09 09:10:15;;;;;;;70.80;53.72;;;17.70;52.70;;;;;;4897893;29;20084;-61
2021/03/09 09:12:41;;;;;;;45.50;35.17;;;17.80;52.70;;;;;;4894401;29;20427;-60
2021/03/09 09:15:28;;;;;;;38.63;27.98;;;17.80;52.70;;;;;;4895515;29;20025;-60
2021/03/09 09:17:58;;;;;;;31.80;24.85;;;17.80;52.70;;;;;;4895877;29;20028;-61
2021/03/09 09:20:27;;;;;;;30.52;24.02;;;17.90;52.70;;;;;;4895701;29;20043;-60
2021/03/09 09:22:54;;;;;;;29.50;23.15;;;17.90;52.60;;;;;;4895868;29;20444;-60
2021/03/09 09:25:20;;;;;;;26.05;20.17;;;17.90;52.50;;;;;;4895391;29;20474;-61
2021/03/09 09:27:49;;;;;;;26.48;20.45;;;17.90;52.50;;;;;;4895566;29;20092;-61
2021/03/09 09:30:21;;;;;;;25.58;19.80;;;17.90;52.50;;;;;;4897765;29;20067;-61
2021/03/09 09:32:56;;;;;;;25.75;19.60;;;17.90;52.50;;;;;;4898899;29;20060;-60
2021/03/09 09:35:25;;;;;;;22.88;16.88;;;18.00;52.50;;;;;;4897297;29;20077;-60
2021/03/09 09:38:08;;;;;;;23.80;17.10;;;17.90;52.50;;;;;;4898931;29;20028;-60
2021/03/09 09:40:49;;;;;;;20.88;16.65;;;17.90;52.50;;;;;;4898897;29;20100;-60
2021/03/09 09:43:16;;;;;;;;;;;17.90;52.50;;;;;;4899316;29;20037;-61
2021/03/09 09:46:03;;;;;;;22.27;15.68;;;17.90;52.50;;;;;;4898508;29;19914;-60
2021/03/09 09:48:38;;;;;;;20.88;15.85;;;17.90;52.60;;;;;;4898709;29;20035;-60
2021/03/09 09:51:06;;;;;;;19.65;15.05;;;17.90;52.60;;;;;;4897455;29;20036;-61
2021/03/09 09:53:39;;;;;;;20.15;14.75;;;17.80;52.70;;;;;;4898507;29;20065;-60
2021/03/09 09:56:10;;;;;;;18.40;14.02;;;17.80;52.70;;;;;;4898300;29;20025;-61
2021/03/09 09:58:44;;;;;;;18.73;14.00;;;17.80;52.70;;;;;;4898593;29;20027;-61
2021/03/09 10:01:11;;;;;;;16.85;13.38;;;17.80;52.60;;;;;;4898688;29;20059;-60
2021/03/09 10:03:55;;;;;;;16.50;13.13;;;17.80;52.70;;;;;;4898292;29;20024;-60
2021/03/09 10:06:23;;;;;;;21.23;12.88;;;17.80;52.60;;;;;;4898427;29;20024;-60
2021/03/09 10:08:49;;;;;;;17.75;12.13;;;17.70;52.70;;;;;;4898439;29;20025;-60
2021/03/09 10:11:15;;;;;;;16.52;12.25;;;17.70;52.80;;;;;;4898225;29;20033;-60
2021/03/09 10:13:41;;;;;;;17.38;12.32;;;17.70;52.80;;;;;;4898323;29;20105;-61
2021/03/09 10:16:06;;;;;;;18.73;11.73;;;17.70;52.90;;;;;;4898028;29;20033;-63
2021/03/09 10:18:34;;;;;;;19.65;11.82;;;17.70;52.80;;;;;;4898370;29;20033;-60
2021/03/09 10:21:15;;;;;;;19.50;11.80;;;17.80;52.90;;;;;;4896973;29;20028;-60
2021/03/09 10:23:56;;;;;;;16.60;11.15;;;17.80;52.80;;;;;;4896926;29;20025;-61
2021/03/09 10:26:38;;;;;;;16.67;10.88;;;17.90;52.80;;;;;;4897941;29;20033;-61
2021/03/09 10:29:15;;;;;;;16.23;11.27;;;18.00;52.80;;;;;;4898091;29;20536;-61
2021/03/09 10:31:43;;;;;;;15.27;10.13;;;18.00;52.60;;;;;;4896924;29;20416;-61
2021/03/09 10:34:09;;;;;;;14.85;10.02;;;18.00;52.60;;;;;;4897467;29;20056;-61
2021/03/09 10:36:54;;;;;;;15.77;9.85;;;18.10;52.70;;;;;;4897866;29;20028;-60
2021/03/09 10:39:21;;;;;;;14.73;10.18;;;18.10;52.60;;;;;;4897392;29;20021;-61
2021/03/09 10:41:46;;;;;;;14.48;9.65;;;18.10;52.60;;;;;;4897877;29;20460;-61
2021/03/09 10:44:32;;;;;;;21.00;10.55;;;18.10;52.70;;;;;;4889418;29;20135;-62
2021/03/09 10:46:59;;;;;;;18.33;9.70;;;18.20;52.70;;;;;;4875532;29;20040;-62
2021/03/09 10:49:26;;;;;;;13.48;9.50;;;18.10;52.70;;;;;;4895422;29;20028;-61
2021/03/09 10:51:56;;;;;;;14.70;9.90;;;18.20;52.70;;;;;;4887363;29;20496;-61
2021/03/09 10:54:21;;;;;;;15.70;9.73;;;18.20;52.70;;;;;;4896696;29;20039;-60
2021/03/09 10:56:47;;;;;;;15.73;9.35;;;18.20;52.70;;;;;;4893457;29;20028;-61
2021/03/09 10:59:12;;;;;;;17.67;9.60;;;18.20;52.70;;;;;;4891147;29;20425;-62
2021/03/09 11:01:38;;;;;;;18.67;10.70;;;18.20;52.70;;;;;;4897048;29;20067;-62
2021/03/09 11:04:04;;;;;;;19.58;9.63;;;18.20;52.80;;;;;;4894048;29;20493;-61
2021/03/09 11:06:29;;;;;;;18.30;9.15;;;18.20;52.80;;;;;;4896111;29;20060;-61
2021/03/09 11:08:55;;;;;;;21.67;8.93;;;18.20;52.80;;;;;;4891675;29;20033;-63
2021/03/09 11:11:20;;;;;;;23.15;9.45;;;18.20;52.80;;;;;;4892386;29;20155;-62
2021/03/09 11:13:46;;;;;;;20.42;8.73;;;18.20;52.90;;;;;;4895510;29;20516;-63
2021/03/09 11:16:11;;;;;;;19.77;9.32;;;18.20;52.90;;;;;;4895820;29;20029;-63
2021/03/09 11:18:37;;;;;;;18.55;8.73;;;18.20;53.00;;;;;;4896604;29;20288;-63
2021/03/09 11:21:02;;;;;;;14.48;8.20;;;18.20;53.00;;;;;;4896725;29;20028;-61
2021/03/09 11:23:28;;;;;;;13.38;7.80;;;18.10;53.00;;;;;;4896810;29;20024;-62
2021/03/09 11:25:53;;;;;;;15.07;7.70;;;18.10;53.00;;;;;;4896553;29;20036;-63
2021/03/09 11:28:19;;;;;;;13.57;7.47;;;18.10;53.00;;;;;;4896766;29;20036;-62
2021/03/09 11:30:44;;;;;;;11.48;7.57;;;18.10;53.10;;;;;;4896865;29;20032;-62
2021/03/09 11:33:10;;;;;;;16.38;7.65;;;18.10;53.10;;;;;;4895411;29;20025;-67
2021/03/09 11:35:36;;;;;;;18.38;11.52;;;18.10;53.20;;;;;;4896420;29;20029;-62
2021/03/09 11:38:02;;;;;;;18.60;14.15;;;18.10;53.20;;;;;;4895300;29;20115;-63
2021/03/09 11:40:27;;;;;;;15.95;10.90;;;18.10;53.20;;;;;;4896495;29;20032;-61
2021/03/09 11:42:53;;;;;;;17.30;9.65;;;18.10;53.10;;;;;;4896638;29;20039;-62
2021/03/09 11:45:19;;;;;;;17.02;9.50;;;18.10;53.10;;;;;;4896329;29;20037;-63
2021/03/09 11:47:44;;;;;;;13.00;8.90;;;18.10;53.00;;;;;;4896559;29;20552;-62
2021/03/09 11:50:11;;;;;;;12.25;8.75;;;18.10;53.00;;;;;;4896469;29;20028;-63
2021/03/09 11:52:38;;;;;;;13.05;8.85;;;18.10;52.90;;;;;;4895950;29;20025;-62
2021/03/09 11:55:05;;;;;;;11.73;9.05;;;18.10;52.90;;;;;;4896050;29;20052;-62
2021/03/09 12:00:53;;;;;;;31.48;19.35;;;18.20;53.00;;;;;;4895820;29;20535;-62
2021/03/09 12:03:18;;;;;;;42.97;11.95;;;18.20;53.00;;;;;;4897420;29;20041;-63
2021/03/09 12:05:44;;;;;;;20.90;16.73;;;18.50;62.50;;;;;;4896306;29;20024;-63
2021/03/09 12:08:10;;;;;;;23.55;17.60;;;18.30;55.80;;;;;;4896626;29;20075;-62
2021/03/09 12:10:36;;;;;;;19.40;15.18;;;18.20;55.40;;;;;;4896773;29;20058;-66
2021/03/09 12:13:02;;;;;;;21.13;14.90;;;18.30;55.10;;;;;;4896473;29;20033;-61
2021/03/09 12:15:27;;;;;;;16.48;13.63;;;18.30;54.80;;;;;;4895956;29;20024;-62
2021/03/09 12:17:53;;;;;;;23.65;13.90;;;18.30;54.40;;;;;;4896524;29;20032;-67
2021/03/09 12:20:18;;;;;;;17.48;12.43;;;18.40;53.50;;;;;;4896396;29;20021;-66
2021/03/09 12:22:45;;;;;;;18.13;12.93;;;18.50;53.20;;;;;;4896499;29;20031;-59
2021/03/09 12:25:11;;;;;;;89.05;81.13;;;18.60;53.10;;;;;;4896001;29;20052;-60
2021/03/09 12:27:37;;;;;;;26.60;22.35;;;18.50;53.10;;;;;;4896257;29;20453;-59
2021/03/09 12:30:05;;;;;;;21.40;18.63;;;18.50;53.00;;;;;;4896430;29;20029;-60
2021/03/09 12:32:30;;;;;;;31.45;28.15;;;18.50;53.00;;;;;;4896271;29;20080;-60
2021/03/09 12:34:56;;;;;;;28.83;25.83;;;18.50;53.00;;;;;;4896021;29;20455;-60
2021/03/09 12:37:21;;;;;;;26.67;23.70;;;18.40;53.00;;;;;;4896384;29;20029;-60
2021/03/09 12:39:47;;;;;;;25.08;22.48;;;18.40;53.00;;;;;;4896349;29;20033;-59
2021/03/09 12:42:12;;;;;;;22.90;20.70;;;18.40;53.00;;;;;;4896355;29;20503;-59
2021/03/09 12:44:38;;;;;;;22.48;19.80;;;18.40;53.10;;;;;;4896070;29;20492;-61